Time;durP1;ratioP1;P1;durP2;ratioP2;P2;SDS_P1;SDS_P2;PMS_P1;PMS_P2;Temp;Humidity;BMP_temperature;BMP_pressure;BME280_temperature;BME280_humidity;BME280_pressure;Samples;Min_cycle;Max_cycle;Signal;HPM_P1;HPM_P2
2022/06/30 00:01:19;;;;;;;8.52;3.60;;;;;;;24.89;55.10;99918.19;5518382;32;34905;-66
2022/06/30 00:04:22;;;;;;;8.43;3.80;;;;;;;24.85;55.93;99915.19;5530808;32;35593;-66
2022/06/30 00:07:26;;;;;;;9.55;3.50;;;;;;;24.78;55.75;99922.00;5531338;32;34560;-66
2022/06/30 00:10:29;;;;;;;9.15;3.40;;;;;;;24.66;55.71;99925.78;5530844;32;34829;-66
2022/06/30 00:13:31;;;;;;;4.68;2.95;;;;;;;24.59;55.63;99919.00;5531040;32;34244;-66
2022/06/30 00:16:34;;;;;;;9.27;3.37;;;;;;;24.49;55.92;99917.09;5531929;32;34733;-66
2022/06/30 00:19:37;;;;;;;5.32;3.45;;;;;;;24.40;56.60;99918.69;5531502;32;34899;-65
2022/06/30 00:22:40;;;;;;;5.72;3.10;;;;;;;24.35;56.88;99924.13;5531621;32;34973;-65
2022/06/30 00:25:43;;;;;;;9.73;2.90;;;;;;;24.27;57.33;99923.84;5531819;32;34353;-66
2022/06/30 00:28:46;;;;;;;6.80;3.35;;;;;;;24.21;57.71;99917.59;5531962;32;34764;-66
2022/06/30 00:31:49;;;;;;;6.53;3.72;;;;;;;24.16;57.73;99922.97;5531832;32;34832;-66
2022/06/30 00:34:52;;;;;;;10.30;3.37;;;;;;;24.08;59.00;99920.78;5531502;32;34584;-66
2022/06/30 00:37:54;;;;;;;5.37;3.15;;;;;;;24.02;63.14;99916.44;5531372;32;34614;-66
2022/06/30 00:40:57;;;;;;;4.60;3.35;;;;;;;24.06;66.17;99921.06;5530726;32;34237;-66
2022/06/30 00:44:00;;;;;;;4.57;2.95;;;;;;;24.05;68.74;99921.34;5531457;32;34299;-66
2022/06/30 00:47:05;;;;;;;8.95;3.30;;;;;;;24.13;68.97;99926.22;5531689;32;34790;-66
2022/06/30 00:50:08;;;;;;;5.25;3.62;;;;;;;24.05;68.88;99915.91;5531364;32;34168;-66
2022/06/30 00:53:17;;;;;;;4.07;2.90;;;;;;;23.88;69.45;99913.41;5531339;32;35540;-66
2022/06/30 00:56:21;;;;;;;5.30;3.30;;;;;;;23.87;69.06;99921.84;5531197;32;34161;-66
2022/06/30 00:59:26;;;;;;;8.93;3.00;;;;;;;23.85;68.77;99923.97;5530461;32;32796;-65
2022/06/30 01:02:29;;;;;;;10.07;3.20;;;;;;;23.76;68.62;99921.78;5531285;32;34142;-66
2022/06/30 01:05:33;;;;;;;5.47;3.20;;;;;;;23.65;68.31;99924.72;5531060;32;34229;-65
2022/06/30 01:08:36;;;;;;;4.43;3.28;;;;;;;23.58;68.38;99907.88;5531264;32;34820;-66
2022/06/30 01:15:01;;;;;;;6.70;2.90;;;;;;;23.60;67.25;99906.53;5531139;32;34178;-66
2022/06/30 01:18:05;;;;;;;5.18;3.22;;;;;;;23.53;66.80;99905.19;5530077;32;34841;-66
2022/06/30 01:21:07;;;;;;;5.50;3.05;;;;;;;23.61;66.78;99905.47;5531574;32;34241;-66
2022/06/30 01:24:10;;;;;;;10.38;3.25;;;;;;;23.52;67.10;99907.06;5531240;32;34266;-66
2022/06/30 01:27:14;;;;;;;4.03;3.00;;;;;;;23.50;66.98;99908.38;5531038;32;34833;-66
2022/06/30 01:30:17;;;;;;;8.75;3.70;;;;;;;23.40;67.02;99909.94;5531086;32;34919;-66
2022/06/30 01:33:19;;;;;;;5.45;3.25;;;;;;;23.37;67.67;99899.66;5531425;32;34213;-66
2022/06/30 01:36:23;;;;;;;6.78;3.05;;;;;;;23.45;66.23;99903.78;5531018;32;34494;-66
2022/06/30 01:39:25;;;;;;;8.75;3.45;;;;;;;23.49;66.09;99910.28;5530845;32;35406;-65
2022/06/30 01:42:28;;;;;;;5.95;3.40;;;;;;;23.49;65.71;99910.28;5530953;32;34636;-65
2022/06/30 01:45:32;;;;;;;8.18;2.87;;;;;;;23.49;65.90;99918.41;5530940;32;34667;-65
2022/06/30 01:48:35;;;;;;;8.65;3.28;;;;;;;23.35;66.42;99925.34;5530857;32;34715;-66
2022/06/30 01:51:38;;;;;;;5.43;3.00;;;;;;;23.26;66.63;99927.72;5530715;32;34302;-66
2022/06/30 01:54:42;;;;;;;7.70;3.00;;;;;;;23.28;66.06;99920.19;5530798;32;34174;-65
2022/06/30 01:57:46;;;;;;;4.85;2.97;;;;;;;23.39;65.75;99929.97;5530633;32;34458;-65
2022/06/30 02:00:50;;;;;;;3.97;2.95;;;;;;;23.33;66.28;99925.59;5530471;32;34890;-66
2022/06/30 02:03:53;;;;;;;5.60;3.00;;;;;;;23.36;66.60;99925.09;5530638;32;34462;-67
2022/06/30 02:06:56;;;;;;;5.57;3.80;;;;;;;23.32;67.37;99934.00;5529882;32;34154;-66
2022/06/30 02:09:58;;;;;;;8.63;3.22;;;;;;;23.26;67.81;99941.25;5529828;32;34237;-66
2022/06/30 02:13:01;;;;;;;6.57;3.03;;;;;;;23.19;68.24;99937.16;5530664;32;34406;-65
2022/06/30 02:16:06;;;;;;;5.37;3.25;;;;;;;23.23;67.92;99936.38;5530018;32;34873;-66
2022/06/30 02:19:09;;;;;;;5.78;3.67;;;;;;;23.29;67.76;99934.50;5530351;32;34168;-66
2022/06/30 02:22:12;;;;;;;12.23;3.60;;;;;;;23.22;68.74;99929.34;5530581;32;34602;-66
2022/06/30 02:25:14;;;;;;;6.47;3.60;;;;;;;23.08;69.15;99933.56;5530380;32;34985;-66
2022/06/30 02:28:20;;;;;;;6.47;3.37;;;;;;;23.00;70.25;99938.63;5530407;32;34198;-66
2022/06/30 02:31:22;;;;;;;7.07;3.47;;;;;;;22.90;70.78;99947.50;5529950;32;34848;-66
2022/06/30 02:34:28;;;;;;;6.55;3.45;;;;;;;22.94;71.91;99945.94;5530218;32;34187;-66
2022/06/30 02:37:30;;;;;;;7.45;3.37;;;;;;;22.78;73.09;99944.16;5530156;32;34264;-65
2022/06/30 02:40:33;;;;;;;6.18;3.47;;;;;;;22.68;73.65;99947.56;5530048;32;34193;-66
2022/06/30 02:43:35;;;;;;;9.10;3.90;;;;;;;22.65;73.12;99948.09;5530056;32;34259;-66
2022/06/30 02:46:38;;;;;;;7.57;3.30;;;;;;;22.61;72.77;99941.53;5530088;32;34855;-66
2022/06/30 02:49:41;;;;;;;6.28;3.42;;;;;;;22.63;73.04;99944.00;5529286;32;34345;-66
2022/06/30 02:52:44;;;;;;;5.10;3.28;;;;;;;22.58;72.63;99939.34;5529847;32;35536;-66
2022/06/30 02:55:47;;;;;;;5.00;3.00;;;;;;;22.43;73.06;99937.34;5529924;32;34154;-66
2022/06/30 02:58:50;;;;;;;7.10;3.37;;;;;;;22.39;72.19;99952.44;5529688;32;34896;-66
2022/06/30 03:01:53;;;;;;;7.37;3.10;;;;;;;22.41;70.56;99936.75;5529685;32;34338;-66
2022/06/30 03:04:56;;;;;;;7.15;3.45;;;;;;;22.47;69.01;99949.25;5529557;32;34360;-66
2022/06/30 03:07:59;;;;;;;4.57;2.87;;;;;;;22.48;67.02;99947.37;5529600;32;34221;-66
2022/06/30 03:11:01;;;;;;;5.07;3.35;;;;;;;22.50;67.07;99947.94;5529639;32;34907;-66
2022/06/30 03:14:04;;;;;;;6.90;3.35;;;;;;;22.44;67.43;99955.19;5529436;32;34907;-66
2022/06/30 03:17:07;;;;;;;4.70;2.87;;;;;;;22.51;66.52;99952.28;5529695;32;34174;-66
2022/06/30 03:20:10;;;;;;;5.50;2.97;;;;;;;22.55;66.39;99950.69;5529381;32;34528;-66
2022/06/30 03:23:12;;;;;;;5.37;3.00;;;;;;;22.58;66.55;99960.16;5529434;32;34945;-66
2022/06/30 03:26:16;;;;;;;5.75;3.55;;;;;;;22.49;67.10;99962.53;5529338;32;34954;-66
2022/06/30 03:29:19;;;;;;;5.90;3.08;;;;;;;22.45;68.61;99964.13;5529320;32;34846;-66
2022/06/30 03:32:21;;;;;;;3.62;3.17;;;;;;;22.51;68.36;99971.22;5529534;32;35178;-66
2022/06/30 03:35:24;;;;;;;4.55;3.40;;;;;;;22.40;68.70;99975.69;5529073;32;34271;-66
2022/06/30 03:38:26;;;;;;;9.20;3.30;;;;;;;22.38;69.68;99975.12;5529145;32;34144;-66
2022/06/30 03:41:29;;;;;;;6.05;3.33;;;;;;;22.44;70.86;99976.81;5529722;32;34848;-66
2022/06/30 03:44:32;;;;;;;7.18;3.53;;;;;;;22.59;72.41;99984.25;5531947;32;34253;-66
2022/06/30 03:47:35;;;;;;;5.05;3.60;;;;;;;22.57;71.43;99991.78;5532151;32;34954;-66
2022/06/30 03:50:37;;;;;;;9.93;3.40;;;;;;;22.70;70.42;99991.44;5531667;32;34882;-66
2022/06/30 03:53:40;;;;;;;6.93;3.33;;;;;;;22.78;69.98;99985.56;5531881;32;34207;-66
2022/06/30 03:56:43;;;;;;;6.97;3.50;;;;;;;22.69;71.17;99992.47;5531578;32;35072;-66
2022/06/30 03:59:46;;;;;;;5.72;3.40;;;;;;;22.92;70.17;99994.03;5518052;32;33275;-66
2022/06/30 04:02:48;;;;;;;4.97;3.37;;;;;;;22.94;70.24;99994.63;5531739;32;34457;-66
2022/06/30 04:05:51;;;;;;;6.18;3.30;;;;;;;22.90;70.46;99993.47;5531869;32;34912;-66
2022/06/30 04:08:54;;;;;;;7.68;3.25;;;;;;;23.03;70.02;100005.78;5531585;32;34089;-66
2022/06/30 04:11:56;;;;;;;4.15;3.20;;;;;;;23.05;69.60;99993.59;5531658;32;34804;-66
2022/06/30 04:14:59;;;;;;;5.53;3.15;;;;;;;23.04;69.54;99996.59;5531689;32;34274;-66
2022/06/30 04:18:02;;;;;;;5.37;3.10;;;;;;;23.06;70.96;100007.94;5531604;32;34328;-66
2022/06/30 04:21:05;;;;;;;9.43;3.60;;;;;;;23.15;70.45;100003.69;5531412;32;34236;-66
2022/06/30 04:24:08;;;;;;;4.10;3.28;;;;;;;23.22;68.87;100005.12;5531543;32;34204;-66
2022/06/30 04:27:12;;;;;;;6.25;3.17;;;;;;;23.20;68.69;100004.53;5531849;32;34158;-66
2022/06/30 04:32:37;;;;;;;4.53;2.85;;;;;;;23.28;69.26;100005.97;5531795;32;34376;-66
2022/06/30 04:33:38;;;;;;;6.47;3.40;;;;;;;23.36;68.00;99995.47;5531385;32;34215;-66
2022/06/30 04:36:41;;;;;;;4.70;3.00;;;;;;;23.50;66.77;100001.28;5531488;32;34626;-66
2022/06/30 04:39:44;;;;;;;4.85;3.17;;;;;;;23.62;65.54;100009.19;5531309;32;34198;-66
2022/06/30 04:42:47;;;;;;;9.23;3.20;;;;;;;23.69;64.93;100007.88;5531347;32;34838;-66
2022/06/30 04:45:49;;;;;;;4.78;3.50;;;;;;;23.70;65.50;100006.81;5531410;32;34937;-66
2022/06/30 04:48:55;;;;;;;8.45;3.20;;;;;;;23.96;63.96;100006.94;5531695;32;34844;-66
2022/06/30 04:51:57;;;;;;;5.00;2.97;;;;;;;23.99;62.99;100001.78;5531297;32;34819;-65
2022/06/30 04:55:00;;;;;;;9.43;3.25;;;;;;;23.98;62.61;100007.47;5531264;32;34203;-65
2022/06/30 04:58:03;;;;;;;11.35;3.20;;;;;;;24.12;62.26;100009.44;5531181;32;34256;-65
2022/06/30 05:01:06;;;;;;;6.95;3.20;;;;;;;24.16;61.02;99998.84;5531174;32;35551;-65
2022/06/30 05:04:09;;;;;;;6.62;3.05;;;;;;;24.39;59.99;100001.16;5531029;32;34208;-66
2022/06/30 05:07:12;;;;;;;5.82;3.05;;;;;;;24.44;59.15;100005.78;5531273;32;34910;-65
2022/06/30 05:10:14;;;;;;;4.18;2.80;;;;;;;24.41;59.59;100000.88;5531124;32;34266;-66
2022/06/30 05:13:17;;;;;;;7.20;2.90;;;;;;;24.46;59.66;100007.13;5531275;32;34361;-66
2022/06/30 05:16:20;;;;;;;6.60;2.90;;;;;;;24.65;59.37;100004.72;5531283;32;34283;-66
2022/06/30 05:19:23;;;;;;;6.45;2.95;;;;;;;24.73;59.22;100003.37;5530370;32;34136;-66
2022/06/30 05:22:27;;;;;;;5.12;2.78;;;;;;;24.88;58.62;100008.84;5531185;32;34189;-66
2022/06/30 05:28:53;;;;;;;5.72;2.92;;;;;;;25.07;58.62;99999.91;5530160;32;33577;-66
2022/06/30 05:31:56;;;;;;;4.37;3.03;;;;;;;25.20;57.17;99989.56;5531233;32;34942;-66
2022/06/30 05:34:58;;;;;;;7.22;3.30;;;;;;;25.38;57.29;100000.66;5530968;32;35001;-66
2022/06/30 05:38:01;;;;;;;10.50;3.45;;;;;;;25.51;56.48;99996.59;5530988;32;35498;-66
2022/06/30 05:41:04;;;;;;;12.82;3.42;;;;;;;25.57;56.27;100000.94;5529916;32;34242;-66
2022/06/30 05:44:07;;;;;;;9.00;3.05;;;;;;;25.69;56.75;100003.34;5530671;32;34186;-66
2022/06/30 05:47:10;;;;;;;3.67;2.85;;;;;;;25.84;55.73;100006.84;5530844;32;34305;-66
2022/06/30 05:50:14;;;;;;;10.10;3.40;;;;;;;25.99;56.62;100014.13;5530765;32;34175;-66
2022/06/30 05:53:16;;;;;;;5.28;3.47;;;;;;;26.15;53.48;100012.12;5530919;32;34892;-66
2022/06/30 05:56:19;;;;;;;4.93;3.05;;;;;;;26.22;53.87;100012.69;5530664;32;34907;-67
2022/06/30 05:59:25;;;;;;;5.72;2.90;;;;;;;26.35;53.14;100009.34;5529632;32;34917;-66
2022/06/30 06:02:28;;;;;;;8.82;3.28;;;;;;;26.50;52.14;100003.81;5529846;32;34179;-67
2022/06/30 06:05:32;;;;;;;4.78;2.95;;;;;;;26.59;50.70;100004.84;5529760;32;35436;-66
2022/06/30 06:08:34;;;;;;;7.35;3.03;;;;;;;26.77;49.58;100006.91;5530638;32;35355;-67
2022/06/30 06:11:42;;;;;;;6.57;2.80;;;;;;;26.97;50.27;100008.69;5530293;32;34195;-65
2022/06/30 06:14:44;;;;;;;3.55;2.20;;;;;;;27.00;49.19;100013.59;5529894;32;34360;-65
2022/06/30 06:17:48;;;;;;;5.30;2.45;;;;;;;27.13;45.96;100012.91;5530386;32;34863;-66
2022/06/30 06:20:50;;;;;;;7.03;2.67;;;;;;;27.22;46.34;100008.47;5530170;32;34311;-65
2022/06/30 06:24:13;;;;;;;6.50;2.53;;;;;;;27.38;45.06;100011.88;5530185;32;34675;-66
2022/06/30 06:27:16;;;;;;;5.10;2.70;;;;;;;27.41;45.85;100014.00;5529370;32;34304;-66
2022/06/30 06:30:19;;;;;;;5.32;2.17;;;;;;;27.57;44.67;100009.25;5530728;32;34324;-66
2022/06/30 06:33:21;;;;;;;4.93;2.75;;;;;;;27.75;43.85;100003.06;5530283;32;34867;-66
2022/06/30 06:36:24;;;;;;;4.00;2.35;;;;;;;27.92;44.66;100010.78;5530268;32;34239;-66
2022/06/30 06:39:27;;;;;;;3.65;2.20;;;;;;;28.07;43.79;100005.97;5530138;32;34377;-66
2022/06/30 06:42:30;;;;;;;4.53;2.37;;;;;;;28.25;42.30;99998.94;5529876;32;34969;-66
2022/06/30 06:45:33;;;;;;;11.32;3.10;;;;;;;28.41;42.05;99999.53;5529862;32;34125;-66
2022/06/30 06:48:37;;;;;;;9.00;2.35;;;;;;;28.55;43.33;99997.69;5529872;32;34218;-66
2022/06/30 06:51:40;;;;;;;6.68;2.08;;;;;;;28.62;40.81;100002.75;5528947;32;34524;-66
2022/06/30 06:54:43;;;;;;;3.60;2.30;;;;;;;28.81;41.07;99995.38;5529745;32;34189;-66
2022/06/30 06:57:45;;;;;;;7.40;2.50;;;;;;;28.93;41.12;99998.47;5529423;32;34311;-66
2022/06/30 07:00:48;;;;;;;7.18;2.10;;;;;;;29.16;39.73;100003.00;5529546;32;34324;-66
2022/06/30 07:03:51;;;;;;;3.22;2.40;;;;;;;29.42;37.82;99999.84;5528830;32;34132;-65
2022/06/30 07:06:53;;;;;;;5.05;2.20;;;;;;;29.65;36.66;99998.88;5529391;32;35499;-65
2022/06/30 07:09:56;;;;;;;3.20;1.98;;;;;;;29.90;37.20;99984.72;5529182;32;34945;-66
2022/06/30 07:12:59;;;;;;;6.00;2.10;;;;;;;30.20;36.07;99980.53;5529095;32;34659;-66
2022/06/30 07:16:04;;;;;;;3.35;2.10;;;;;;;30.40;34.96;99984.75;5528856;32;34315;-65
2022/06/30 07:19:08;;;;;;;6.57;2.12;;;;;;;30.55;34.05;99977.00;5531633;32;34175;-67
2022/06/30 07:22:17;;;;;;;6.47;2.15;;;;;;;30.80;35.33;99970.09;5531562;32;34185;-66
2022/06/30 07:25:20;;;;;;;5.22;3.00;;;;;;;30.90;32.79;99977.25;5531878;32;34592;-67
2022/06/30 07:28:22;;;;;;;6.62;3.00;;;;;;;31.22;32.86;99973.47;5532192;32;35466;-66
2022/06/30 07:31:45;;;;;;;7.53;2.20;;;;;;;31.45;33.07;99981.31;5531853;32;34277;-66
2022/06/30 07:34:48;;;;;;;5.30;2.65;;;;;;;31.49;31.58;99979.56;5532128;32;34254;-67
2022/06/30 07:37:50;;;;;;;3.75;1.80;;;;;;;31.54;31.71;99975.88;5531709;32;34849;-65
2022/06/30 07:40:53;;;;;;;5.70;2.47;;;;;;;32.10;32.27;99971.53;5531165;32;35155;-65
2022/06/30 07:43:58;;;;;;;4.05;2.60;;;;;;;32.34;29.90;99978.22;5530937;32;35552;-67
2022/06/30 07:47:00;;;;;;;7.15;2.15;;;;;;;33.08;28.45;99978.03;5531783;32;34868;-66
2022/06/30 07:50:04;;;;;;;3.47;2.08;;;;;;;33.78;28.40;99975.91;5530552;32;34251;-66
2022/06/30 07:53:06;;;;;;;6.78;2.28;;;;;;;34.29;28.51;99975.59;5530326;32;33345;-65
2022/06/30 07:56:10;;;;;;;5.93;2.15;;;;;;;34.72;26.57;99968.94;5531527;32;35011;-66
2022/06/30 07:59:13;;;;;;;8.00;2.10;;;;;;;34.52;27.00;99967.00;5530581;32;34935;-66
2022/06/30 08:02:16;;;;;;;2.45;1.90;;;;;;;34.80;26.50;99959.81;5531144;32;34991;-67
2022/06/30 08:05:19;;;;;;;7.80;2.10;;;;;;;35.48;26.20;99952.75;5517996;32;32720;-67
2022/06/30 08:08:23;;;;;;;2.65;1.83;;;;;;;35.45;26.28;99956.19;5531007;32;34218;-66
2022/06/30 08:11:28;;;;;;;3.87;1.92;;;;;;;36.12;25.36;99961.09;5531115;32;34301;-66
2022/06/30 08:14:30;;;;;;;6.07;1.80;;;;;;;36.45;25.62;99949.91;5531507;32;34299;-67
2022/06/30 08:17:33;;;;;;;9.07;2.12;;;;;;;36.12;25.53;99954.78;5530939;32;34213;-66
2022/06/30 08:20:37;;;;;;;6.30;2.15;;;;;;;35.78;25.82;99953.34;5530842;32;34603;-68
2022/06/30 08:23:41;;;;;;;8.63;1.95;;;;;;;36.80;24.50;99958.41;5531103;32;34325;-66
2022/06/30 08:26:44;;;;;;;3.30;2.00;;;;;;;37.14;24.29;99959.75;5530907;32;34549;-67
2022/06/30 08:29:46;;;;;;;2.60;1.80;;;;;;;37.06;23.88;99954.34;5531642;32;35454;-68
2022/06/30 08:32:50;;;;;;;8.32;2.03;;;;;;;37.53;23.37;99951.62;5530642;32;34988;-67
2022/06/30 08:35:54;;;;;;;6.85;2.12;;;;;;;38.07;22.53;99947.03;5531295;32;34110;-68
2022/06/30 08:39:03;;;;;;;5.60;1.77;;;;;;;38.94;21.84;99948.47;5531247;32;34342;-68
2022/06/30 08:42:06;;;;;;;7.35;1.87;;;;;;;39.37;21.78;99945.28;5531073;32;34849;-67
2022/06/30 08:45:16;;;;;;;3.83;1.75;;;;;;;39.17;20.58;99943.72;5530703;32;34154;-67
2022/06/30 08:48:20;;;;;;;4.70;1.62;;;;;;;39.57;20.92;99945.22;5530819;32;34171;-68
2022/06/30 08:51:28;;;;;;;5.37;2.20;;;;;;;39.87;20.26;99935.00;5531027;32;34314;-69
2022/06/30 08:54:36;;;;;;;3.10;1.50;;;;;;;39.27;20.43;99943.09;5531242;32;34896;-68
2022/06/30 08:57:45;;;;;;;4.72;1.75;;;;;;;39.97;20.05;99942.69;5530898;32;34324;-68
2022/06/30 09:00:51;;;;;;;3.03;1.70;;;;;;;38.66;20.27;99941.19;5530354;32;33490;-68
2022/06/30 09:03:58;;;;;;;1.65;1.55;;;;;;;38.68;20.96;99932.50;5531210;32;34673;-69
2022/06/30 09:07:01;;;;;;;3.92;1.73;;;;;;;39.39;20.55;99925.50;5531081;32;34094;-68
2022/06/30 09:10:06;;;;;;;2.67;1.62;;;;;;;38.37;20.16;99929.84;5530935;32;35552;-68
2022/06/30 09:13:09;;;;;;;4.87;1.70;;;;;;;37.79;21.50;99936.09;5530928;32;34103;-67
2022/06/30 09:16:13;;;;;;;6.95;1.83;;;;;;;37.87;21.42;99934.28;5530931;32;35629;-67
2022/06/30 09:19:18;;;;;;;4.12;2.08;;;;;;;37.63;21.75;99935.31;5531037;32;34196;-67
2022/06/30 09:22:23;;;;;;;3.75;1.80;;;;;;;39.13;20.19;99937.31;5530814;32;34153;-67
2022/06/30 09:25:32;;;;;;;2.35;1.67;;;;;;;39.04;19.89;99931.22;5530970;32;34835;-67
2022/06/30 09:28:54;;;;;;;5.50;1.40;;;;;;;40.04;19.31;99928.09;5530287;32;33226;-67
2022/06/30 09:32:18;;;;;;;3.33;1.98;;;;;;;40.86;18.95;99929.94;5530658;32;34567;-67
2022/06/30 09:35:23;;;;;;;6.22;1.50;;;;;;;41.53;18.42;99933.34;5530122;32;35563;-67
2022/06/30 09:38:29;;;;;;;5.70;1.87;;;;;;;41.67;17.78;99932.66;5530272;32;34347;-67
2022/06/30 09:41:41;;;;;;;4.68;1.67;;;;;;;40.32;17.91;99934.06;5529927;32;34230;-69
2022/06/30 09:44:48;;;;;;;3.28;1.77;;;;;;;40.30;18.22;99926.09;5531016;32;34316;-67
2022/06/30 09:47:55;;;;;;;5.00;1.40;;;;;;;42.28;17.52;99927.06;5530722;32;34250;-68
2022/06/30 09:51:03;;;;;;;4.60;1.55;;;;;;;42.37;17.59;99918.34;5530498;32;34206;-68
2022/06/30 09:54:08;;;;;;;3.15;1.50;;;;;;;42.40;17.16;99915.59;5530800;32;34185;-68
2022/06/30 09:57:11;;;;;;;3.58;1.55;;;;;;;42.61;16.72;99917.63;5530575;32;34223;-69
2022/06/30 10:00:16;;;;;;;3.42;1.37;;;;;;;40.03;17.31;99909.81;5530933;32;34235;-67
2022/06/30 10:03:20;;;;;;;6.68;1.60;;;;;;;40.81;16.45;99904.03;5530682;32;34332;-68
2022/06/30 10:06:22;;;;;;;6.30;1.40;;;;;;;40.09;17.64;99906.31;5529928;32;34498;-68
2022/06/30 10:09:25;;;;;;;7.82;1.85;;;;;;;40.84;17.41;99910.03;5530891;32;34243;-68
2022/06/30 10:12:28;;;;;;;3.87;1.40;;;;;;;41.39;16.94;99908.16;5530610;32;34224;-68
2022/06/30 10:15:36;;;;;;;2.62;1.60;;;;;;;42.43;16.22;99903.63;5529779;32;34206;-67
2022/06/30 10:18:40;;;;;;;4.18;1.58;;;;;;;42.08;16.53;99901.47;5530975;32;34602;-67
2022/06/30 10:21:44;;;;;;;4.85;1.67;;;;;;;43.04;15.93;99895.41;5530510;32;34645;-69
2022/06/30 10:24:51;;;;;;;3.10;1.50;;;;;;;43.37;15.23;99880.25;5529713;32;34458;-68
2022/06/30 10:27:55;;;;;;;3.12;1.70;;;;;;;42.19;16.12;99881.19;5530530;32;34198;-68
2022/06/30 10:31:20;;;;;;;6.05;1.60;;;;;;;42.19;16.63;99881.19;5529432;32;32889;-67
2022/06/30 10:34:35;;;;;;;2.40;1.60;;;;;;;41.81;16.98;99886.19;5530407;32;34213;-67
2022/06/30 10:38:35;;;;;;;3.47;1.58;;;;;;;41.96;16.42;99899.03;5516911;32;33418;-68
2022/06/30 10:41:46;;;;;;;4.07;1.60;;;;;;;44.69;14.70;99871.03;5524570;32;35014;-67
2022/06/30 10:44:48;;;;;;;5.43;1.42;;;;;;;45.10;13.70;99871.16;5530078;32;34747;-68
2022/06/30 10:48:14;;;;;;;3.40;1.25;;;;;;;43.71;14.59;99873.03;5519039;32;32695;-68
2022/06/30 10:51:20;;;;;;;9.73;1.60;;;;;;;44.17;13.50;99862.50;5531232;32;34191;-66
2022/06/30 10:54:32;;;;;;;5.10;1.50;;;;;;;44.11;13.54;99874.50;5531766;32;33899;-68
2022/06/30 10:58:04;;;;;;;2.65;1.60;;;;;;;45.09;13.51;99866.75;5518602;32;33927;-67
2022/06/30 11:01:11;;;;;;;6.55;1.62;;;;;;;45.22;13.11;99867.06;5531495;32;32844;-68
2022/06/30 11:04:15;;;;;;;2.47;1.20;;;;;;;44.04;13.57;99857.78;5532300;32;34276;-67
2022/06/30 11:07:20;;;;;;;2.92;1.17;;;;;;;44.40;13.67;99859.19;5531701;32;33476;-68
2022/06/30 11:10:24;;;;;;;6.00;1.35;;;;;;;45.72;12.53;99862.53;5532244;32;34966;-67
2022/06/30 11:13:30;;;;;;;2.78;1.55;;;;;;;45.46;12.98;99870.84;5506220;32;32748;-70
2022/06/30 11:16:36;;;;;;;8.35;1.42;;;;;;;46.42;12.58;99857.28;5531636;32;35004;-68
2022/06/30 11:19:39;;;;;;;1.73;1.50;;;;;;;45.80;13.30;99850.06;5532631;32;34770;-67
2022/06/30 11:22:44;;;;;;;3.95;1.50;;;;;;;46.54;12.79;99839.88;5531503;32;34659;-68
2022/06/30 11:29:18;;;;;;;4.60;1.50;;;;;;;47.15;11.48;99842.53;5532240;32;34620;-68
2022/06/30 11:32:24;;;;;;;3.28;1.40;;;;;;;47.21;11.85;99823.13;5532504;32;34170;-68
2022/06/30 11:35:28;;;;;;;4.25;1.48;;;;;;;47.80;11.08;99832.47;5532085;32;34906;-69
2022/06/30 11:38:32;;;;;;;2.90;1.40;;;;;;;46.89;11.85;99823.69;5518404;32;35077;-68
2022/06/30 11:41:56;;;;;;;2.67;1.42;;;;;;;47.20;11.49;99808.31;5531955;32;34914;-67
2022/06/30 11:44:59;;;;;;;8.10;1.70;;;;;;;45.82;12.40;99805.59;5532330;32;34765;-67
2022/06/30 11:48:05;;;;;;;5.78;1.55;;;;;;;47.36;11.50;99811.25;5532100;32;34344;-67
2022/06/30 11:51:11;;;;;;;2.07;1.50;;;;;;;47.09;11.70;99810.53;5531929;32;34562;-68
2022/06/30 11:54:15;;;;;;;3.30;1.40;;;;;;;45.43;12.31;99808.81;5532101;32;34209;-67
2022/06/30 11:57:25;;;;;;;3.22;1.40;;;;;;;47.83;11.50;99806.31;5531695;32;34959;-68
2022/06/30 12:00:30;;;;;;;2.10;1.48;;;;;;;48.84;10.71;99791.56;5519079;32;33291;-68
2022/06/30 12:03:38;;;;;;;4.18;1.50;;;;;;;48.12;10.70;99800.09;5531519;32;34162;-67
2022/06/30 12:06:42;;;;;;;3.78;1.52;;;;;;;47.85;11.64;99789.78;5531859;32;34403;-67
2022/06/30 12:09:45;;;;;;;4.55;1.60;;;;;;;47.45;11.32;99793.81;5531779;32;35012;-68
2022/06/30 12:12:48;;;;;;;4.10;1.48;;;;;;;48.25;11.38;99779.28;5532036;32;34801;-67
2022/06/30 12:15:51;;;;;;;4.05;1.33;;;;;;;48.35;10.18;99777.47;5531832;32;34346;-67
2022/06/30 12:18:54;;;;;;;2.85;1.50;;;;;;;47.93;10.91;99779.19;5531702;32;34882;-67
2022/06/30 12:21:58;;;;;;;3.50;1.45;;;;;;;48.60;10.79;99766.38;5531561;32;34266;-68
2022/06/30 12:25:01;;;;;;;3.15;1.30;;;;;;;48.58;10.24;99771.66;5531994;32;34300;-67
2022/06/30 12:28:04;;;;;;;8.02;1.55;;;;;;;49.18;10.16;99767.31;5531011;32;34362;-67
2022/06/30 12:31:07;;;;;;;3.42;1.40;;;;;;;49.05;10.63;99774.91;5531588;32;34536;-66
2022/06/30 12:34:14;;;;;;;3.97;1.30;;;;;;;48.93;10.21;99772.00;5531608;32;34124;-67
2022/06/30 12:37:24;;;;;;;3.90;1.27;;;;;;;47.79;9.92;99774.66;5531645;32;34887;-68
2022/06/30 12:40:30;;;;;;;4.82;1.60;;;;;;;49.32;9.72;99777.38;5531821;32;34973;-68
2022/06/30 12:43:48;;;;;;;2.67;1.30;;;;;;;48.88;9.26;99773.31;5530801;32;35429;-67
2022/06/30 12:46:51;;;;;;;4.00;1.40;;;;;;;49.01;9.25;99771.34;5531837;32;34707;-67
2022/06/30 12:49:54;;;;;;;3.55;1.37;;;;;;;48.73;9.25;99772.13;5518043;32;34914;-67
2022/06/30 12:53:15;;;;;;;5.90;1.33;;;;;;;48.66;9.75;99758.19;5530342;32;33065;-68
2022/06/30 12:56:22;;;;;;;6.00;1.20;;;;;;;51.02;8.68;99766.44;5530902;32;34917;-66
2022/06/30 12:59:26;;;;;;;3.20;1.30;;;;;;;50.45;7.83;99759.13;5531456;32;34987;-68
2022/06/30 13:02:42;;;;;;;3.55;1.10;;;;;;;50.52;7.55;99760.88;5531170;32;34238;-67
2022/06/30 13:05:46;;;;;;;4.90;1.55;;;;;;;52.29;6.94;99757.22;5530413;32;34130;-67
2022/06/30 13:08:49;;;;;;;7.10;1.37;;;;;;;50.17;8.82;99743.06;5531289;32;34928;-68
2022/06/30 13:11:55;;;;;;;3.70;1.40;;;;;;;51.41;8.33;99733.94;5530836;32;34228;-67
2022/06/30 13:14:58;;;;;;;5.10;1.30;;;;;;;50.16;8.41;99735.84;5530706;32;34886;-68
2022/06/30 13:18:01;;;;;;;2.15;1.20;;;;;;;50.06;8.13;99740.56;5531215;32;34325;-67
2022/06/30 13:21:06;;;;;;;2.22;1.10;;;;;;;52.13;7.16;99734.81;5531129;32;34263;-67
2022/06/30 13:24:10;;;;;;;3.20;1.37;;;;;;;51.70;7.37;99742.94;5531123;32;34892;-67
2022/06/30 13:27:13;;;;;;;5.07;1.20;;;;;;;51.65;7.41;99737.88;5530960;32;34472;-66
2022/06/30 13:30:17;;;;;;;4.37;1.40;;;;;;;51.20;8.41;99731.91;5530946;32;34910;-67
2022/06/30 13:33:21;;;;;;;9.30;1.50;;;;;;;50.94;7.97;99730.41;5530849;32;34244;-67
2022/06/30 13:36:27;;;;;;;3.47;1.40;;;;;;;50.10;8.81;99735.63;5530814;32;34230;-67
2022/06/30 13:39:32;;;;;;;4.45;1.23;;;;;;;49.19;9.19;99732.22;5529710;32;33457;-68
2022/06/30 13:42:35;;;;;;;2.22;1.17;;;;;;;49.13;8.40;99736.84;5530064;32;34073;-68
2022/06/30 13:45:37;;;;;;;2.53;1.30;;;;;;;50.96;7.70;99730.75;5529872;32;32806;-67
2022/06/30 13:48:41;;;;;;;2.25;1.20;;;;;;;50.22;8.10;99729.19;5529828;32;32890;-69
2022/06/30 13:51:44;;;;;;;6.05;1.33;;;;;;;52.27;7.45;99732.19;5530191;32;33593;-67
2022/06/30 13:54:47;;;;;;;4.85;1.50;;;;;;;51.58;8.73;99729.66;5529998;32;32874;-68
2022/06/30 13:57:50;;;;;;;3.70;1.52;;;;;;;51.77;8.09;99722.06;5530771;32;34271;-68
2022/06/30 14:00:53;;;;;;;2.58;1.40;;;;;;;52.20;7.85;99728.84;5529909;32;34159;-67
2022/06/30 14:03:56;;;;;;;2.95;1.40;;;;;;;50.52;9.10;99722.16;5530489;32;34897;-66
2022/06/30 14:06:59;;;;;;;4.50;1.52;;;;;;;49.64;9.07;99717.25;5530122;32;33862;-66
2022/06/30 14:10:04;;;;;;;2.53;1.50;;;;;;;50.75;8.56;99727.37;5530047;32;32718;-67
2022/06/30 14:13:07;;;;;;;5.90;1.60;;;;;;;50.19;9.19;99721.63;5530731;32;34155;-67
2022/06/30 14:16:12;;;;;;;6.15;1.70;;;;;;;50.34;9.34;99722.75;5530657;32;34781;-68
2022/06/30 14:19:17;;;;;;;9.55;1.50;;;;;;;48.33;10.63;99712.34;5530891;32;34293;-67
2022/06/30 14:22:21;;;;;;;2.53;1.60;;;;;;;49.39;9.32;99718.00;5530303;32;34831;-68
2022/06/30 14:25:25;;;;;;;6.40;1.50;;;;;;;49.33;9.61;99721.81;5529680;32;34269;-67
2022/06/30 14:28:27;;;;;;;4.95;1.52;;;;;;;47.99;10.98;99717.59;5530455;32;34239;-67
2022/06/30 14:31:30;;;;;;;5.20;1.50;;;;;;;45.12;12.18;99711.13;5530228;32;34171;-67
2022/06/30 14:34:33;;;;;;;1.52;1.40;;;;;;;44.99;13.33;99706.03;5530137;32;35364;-66
2022/06/30 14:37:39;;;;;;;2.78;1.48;;;;;;;45.81;13.01;99703.06;5530202;32;34257;-67
2022/06/30 14:40:43;;;;;;;5.10;1.48;;;;;;;46.10;12.90;99699.84;5529475;32;32994;-66